sensor_id;sensor_type;location;lat;lon;timestamp;temperature;humidity
60293;DHT22;52402;52.670;6.750;2023-07-13T00:00:41;15.50;99.90
60293;DHT22;52402;52.670;6.750;2023-07-13T00:03:07;15.50;99.90
60293;DHT22;52402;52.670;6.750;2023-07-13T00:05:33;15.50;99.90
60293;DHT22;52402;52.670;6.750;2023-07-13T00:07:59;15.50;99.90
60293;DHT22;52402;52.670;6.750;2023-07-13T00:10:25;15.50;99.90
60293;DHT22;52402;52.670;6.750;2023-07-13T00:12:52;15.50;99.90
60293;DHT22;52402;52.670;6.750;2023-07-13T00:15:23;15.50;99.90
60293;DHT22;52402;52.670;6.750;2023-07-13T00:17:50;15.60;99.90
60293;DHT22;52402;52.670;6.750;2023-07-13T00:20:16;15.60;99.90
60293;DHT22;52402;52.670;6.750;2023-07-13T00:22:42;15.60;99.90
60293;DHT22;52402;52.670;6.750;2023-07-13T00:25:10;15.60;99.90
60293;DHT22;52402;52.670;6.750;2023-07-13T00:27:36;15.60;99.90
60293;DHT22;52402;52.670;6.750;2023-07-13T00:30:02;15.60;99.90
60293;DHT22;52402;52.670;6.750;2023-07-13T00:32:28;15.60;99.90
60293;DHT22;52402;52.670;6.750;2023-07-13T00:34:58;15.60;99.90
60293;DHT22;52402;52.670;6.750;2023-07-13T00:37:25;15.50;99.90
60293;DHT22;52402;52.670;6.750;2023-07-13T00:39:51;15.50;99.90
60293;DHT22;52402;52.670;6.750;2023-07-13T00:42:17;15.50;99.90
60293;DHT22;52402;52.670;6.750;2023-07-13T00:47:36;15.50;99.90
60293;DHT22;52402;52.670;6.750;2023-07-13T00:50:03;15.50;99.90
60293;DHT22;52402;52.670;6.750;2023-07-13T00:52:30;15.50;99.90
60293;DHT22;52402;52.670;6.750;2023-07-13T00:54:56;15.50;99.90
60293;DHT22;52402;52.670;6.750;2023-07-13T00:57:23;15.50;99.90
60293;DHT22;52402;52.670;6.750;2023-07-13T00:59:54;15.50;99.90
60293;DHT22;52402;52.670;6.750;2023-07-13T01:02:21;15.60;99.90
60293;DHT22;52402;52.670;6.750;2023-07-13T01:04:47;15.60;99.90
60293;DHT22;52402;52.670;6.750;2023-07-13T01:07:13;15.60;99.90
60293;DHT22;52402;52.670;6.750;2023-07-13T01:09:39;15.60;99.90
60293;DHT22;52402;52.670;6.750;2023-07-13T01:12:06;15.60;99.90
60293;DHT22;52402;52.670;6.750;2023-07-13T01:14:32;15.70;99.90
60293;DHT22;52402;52.670;6.750;2023-07-13T01:16:58;15.70;99.90
60293;DHT22;52402;52.670;6.750;2023-07-13T01:19:33;15.70;99.90
60293;DHT22;52402;52.670;6.750;2023-07-13T01:22:12;15.70;99.90
60293;DHT22;52402;52.670;6.750;2023-07-13T01:24:40;15.70;99.90
60293;DHT22;52402;52.670;6.750;2023-07-13T01:27:08;15.70;99.90
60293;DHT22;52402;52.670;6.750;2023-07-13T01:29:36;15.70;99.90
60293;DHT22;52402;52.670;6.750;2023-07-13T01:32:12;15.70;99.90
60293;DHT22;52402;52.670;6.750;2023-07-13T01:34:38;15.70;99.90
60293;DHT22;52402;52.670;6.750;2023-07-13T01:37:09;15.70;99.90
60293;DHT22;52402;52.670;6.750;2023-07-13T01:39:35;15.70;99.90
60293;DHT22;52402;52.670;6.750;2023-07-13T01:42:01;15.70;99.90
60293;DHT22;52402;52.670;6.750;2023-07-13T01:44:27;15.70;99.90
60293;DHT22;52402;52.670;6.750;2023-07-13T01:46:52;15.70;99.90
60293;DHT22;52402;52.670;6.750;2023-07-13T01:49:18;15.70;99.90
60293;DHT22;52402;52.670;6.750;2023-07-13T01:51:44;15.70;99.90
60293;DHT22;52402;52.670;6.750;2023-07-13T01:54:10;15.70;99.90
60293;DHT22;52402;52.670;6.750;2023-07-13T01:56:41;15.70;99.90
60293;DHT22;52402;52.670;6.750;2023-07-13T01:59:08;15.70;99.90
60293;DHT22;52402;52.670;6.750;2023-07-13T02:01:34;15.70;99.90
60293;DHT22;52402;52.670;6.750;2023-07-13T02:03:59;15.70;99.90
60293;DHT22;52402;52.670;6.750;2023-07-13T02:06:25;15.70;99.90
60293;DHT22;52402;52.670;6.750;2023-07-13T02:08:51;15.70;99.90
60293;DHT22;52402;52.670;6.750;2023-07-13T02:11:16;15.70;99.90
60293;DHT22;52402;52.670;6.750;2023-07-13T02:13:43;15.70;99.90
60293;DHT22;52402;52.670;6.750;2023-07-13T02:16:09;15.70;99.90
60293;DHT22;52402;52.670;6.750;2023-07-13T02:18:35;15.70;99.90
60293;DHT22;52402;52.670;6.750;2023-07-13T02:21:00;15.70;99.90
60293;DHT22;52402;52.670;6.750;2023-07-13T02:23:26;15.70;99.90
60293;DHT22;52402;52.670;6.750;2023-07-13T02:25:56;15.70;99.90
60293;DHT22;52402;52.670;6.750;2023-07-13T02:28:22;15.70;99.90
60293;DHT22;52402;52.670;6.750;2023-07-13T02:30:47;15.70;99.90
60293;DHT22;52402;52.670;6.750;2023-07-13T02:33:13;15.70;99.90
60293;DHT22;52402;52.670;6.750;2023-07-13T02:35:39;15.70;99.90
60293;DHT22;52402;52.670;6.750;2023-07-13T02:38:04;15.70;99.90
60293;DHT22;52402;52.670;6.750;2023-07-13T02:40:30;15.70;99.90
60293;DHT22;52402;52.670;6.750;2023-07-13T02:42:59;15.60;99.90
60293;DHT22;52402;52.670;6.750;2023-07-13T02:45:25;15.70;99.90
60293;DHT22;52402;52.670;6.750;2023-07-13T02:47:51;15.70;99.90
60293;DHT22;52402;52.670;6.750;2023-07-13T02:50:17;15.70;99.90
60293;DHT22;52402;52.670;6.750;2023-07-13T02:52:43;15.60;99.90
60293;DHT22;52402;52.670;6.750;2023-07-13T02:55:09;15.60;99.90
60293;DHT22;52402;52.670;6.750;2023-07-13T02:57:34;15.60;99.90
60293;DHT22;52402;52.670;6.750;2023-07-13T03:00:01;15.60;99.90
60293;DHT22;52402;52.670;6.750;2023-07-13T03:02:30;15.60;99.90
60293;DHT22;52402;52.670;6.750;2023-07-13T03:04:56;15.60;99.90
60293;DHT22;52402;52.670;6.750;2023-07-13T03:07:21;15.60;99.90
60293;DHT22;52402;52.670;6.750;2023-07-13T03:09:47;15.50;99.90
60293;DHT22;52402;52.670;6.750;2023-07-13T03:12:13;15.60;99.90
60293;DHT22;52402;52.670;6.750;2023-07-13T03:14:38;15.50;99.90
60293;DHT22;52402;52.670;6.750;2023-07-13T03:17:04;15.50;99.90
60293;DHT22;52402;52.670;6.750;2023-07-13T03:19:30;15.50;99.90
60293;DHT22;52402;52.670;6.750;2023-07-13T03:21:55;15.50;99.90
60293;DHT22;52402;52.670;6.750;2023-07-13T03:24:21;15.50;99.90
60293;DHT22;52402;52.670;6.750;2023-07-13T03:26:48;15.50;99.90
60293;DHT22;52402;52.670;6.750;2023-07-13T03:29:14;15.50;99.90
60293;DHT22;52402;52.670;6.750;2023-07-13T03:31:40;15.50;99.90
60293;DHT22;52402;52.670;6.750;2023-07-13T03:34:06;15.50;99.90
60293;DHT22;52402;52.670;6.750;2023-07-13T03:36:32;15.50;99.90
60293;DHT22;52402;52.670;6.750;2023-07-13T03:39:00;15.40;99.90
60293;DHT22;52402;52.670;6.750;2023-07-13T03:41:26;15.40;99.90
60293;DHT22;52402;52.670;6.750;2023-07-13T03:43:52;15.40;99.90
60293;DHT22;52402;52.670;6.750;2023-07-13T03:46:22;15.30;99.90
60293;DHT22;52402;52.670;6.750;2023-07-13T03:48:47;15.30;99.90
60293;DHT22;52402;52.670;6.750;2023-07-13T03:51:15;15.20;99.90
60293;DHT22;52402;52.670;6.750;2023-07-13T03:53:42;15.20;99.90
60293;DHT22;52402;52.670;6.750;2023-07-13T03:56:08;15.30;99.90
60293;DHT22;52402;52.670;6.750;2023-07-13T03:58:37;15.30;99.90
60293;DHT22;52402;52.670;6.750;2023-07-13T04:01:05;15.30;99.90
60293;DHT22;52402;52.670;6.750;2023-07-13T04:03:32;15.20;99.90
60293;DHT22;52402;52.670;6.750;2023-07-13T04:06:03;15.20;99.90
60293;DHT22;52402;52.670;6.750;2023-07-13T04:08:31;15.20;99.90
60293;DHT22;52402;52.670;6.750;2023-07-13T04:10:58;15.20;99.90
60293;DHT22;52402;52.670;6.750;2023-07-13T04:13:25;15.10;99.90
60293;DHT22;52402;52.670;6.750;2023-07-13T04:15:51;15.10;99.90
60293;DHT22;52402;52.670;6.750;2023-07-13T04:18:17;15.10;99.90
60293;DHT22;52402;52.670;6.750;2023-07-13T04:20:43;15.10;99.90
60293;DHT22;52402;52.670;6.750;2023-07-13T04:23:09;15.10;99.90
60293;DHT22;52402;52.670;6.750;2023-07-13T04:25:35;15.10;99.90
60293;DHT22;52402;52.670;6.750;2023-07-13T04:28:01;15.10;99.90
60293;DHT22;52402;52.670;6.750;2023-07-13T04:30:26;15.10;99.90
60293;DHT22;52402;52.670;6.750;2023-07-13T04:32:52;15.10;99.90
60293;DHT22;52402;52.670;6.750;2023-07-13T04:35:21;15.10;99.90
60293;DHT22;52402;52.670;6.750;2023-07-13T04:37:48;15.10;99.90
60293;DHT22;52402;52.670;6.750;2023-07-13T04:40:18;15.10;99.90
60293;DHT22;52402;52.670;6.750;2023-07-13T04:42:45;15.10;99.90
60293;DHT22;52402;52.670;6.750;2023-07-13T04:45:12;15.10;99.90
60293;DHT22;52402;52.670;6.750;2023-07-13T04:47:38;15.00;99.90
60293;DHT22;52402;52.670;6.750;2023-07-13T04:50:04;15.00;99.90
60293;DHT22;52402;52.670;6.750;2023-07-13T04:52:30;15.00;99.90
60293;DHT22;52402;52.670;6.750;2023-07-13T04:54:57;15.00;99.90
60293;DHT22;52402;52.670;6.750;2023-07-13T04:57:22;15.00;99.90
60293;DHT22;52402;52.670;6.750;2023-07-13T04:59:48;15.00;99.90
60293;DHT22;52402;52.670;6.750;2023-07-13T05:02:14;15.00;99.90
60293;DHT22;52402;52.670;6.750;2023-07-13T05:04:40;15.10;99.90
60293;DHT22;52402;52.670;6.750;2023-07-13T05:07:06;15.10;99.90
60293;DHT22;52402;52.670;6.750;2023-07-13T05:09:32;15.10;99.90
60293;DHT22;52402;52.670;6.750;2023-07-13T05:11:57;15.20;99.90
60293;DHT22;52402;52.670;6.750;2023-07-13T05:14:23;15.20;99.90
60293;DHT22;52402;52.670;6.750;2023-07-13T05:16:48;15.20;99.90
60293;DHT22;52402;52.670;6.750;2023-07-13T05:19:14;15.30;99.90
60293;DHT22;52402;52.670;6.750;2023-07-13T05:21:40;15.40;99.90
60293;DHT22;52402;52.670;6.750;2023-07-13T05:24:06;15.40;99.90
60293;DHT22;52402;52.670;6.750;2023-07-13T05:26:32;15.50;99.90
60293;DHT22;52402;52.670;6.750;2023-07-13T05:28:58;15.50;99.90
60293;DHT22;52402;52.670;6.750;2023-07-13T05:31:24;15.50;99.90
60293;DHT22;52402;52.670;6.750;2023-07-13T05:33:49;15.50;99.90
60293;DHT22;52402;52.670;6.750;2023-07-13T05:36:15;15.60;99.90
60293;DHT22;52402;52.670;6.750;2023-07-13T05:38:41;15.70;99.90
60293;DHT22;52402;52.670;6.750;2023-07-13T05:41:06;15.70;99.90
60293;DHT22;52402;52.670;6.750;2023-07-13T05:43:33;15.80;99.90
60293;DHT22;52402;52.670;6.750;2023-07-13T05:45:59;15.80;99.90
60293;DHT22;52402;52.670;6.750;2023-07-13T05:48:24;15.90;99.90
60293;DHT22;52402;52.670;6.750;2023-07-13T05:50:50;15.90;99.90
60293;DHT22;52402;52.670;6.750;2023-07-13T05:53:16;16.00;99.90
60293;DHT22;52402;52.670;6.750;2023-07-13T05:55:43;16.00;99.90
60293;DHT22;52402;52.670;6.750;2023-07-13T05:58:09;16.10;99.90
60293;DHT22;52402;52.670;6.750;2023-07-13T06:00:34;16.10;99.90
60293;DHT22;52402;52.670;6.750;2023-07-13T06:03:00;16.20;99.90
60293;DHT22;52402;52.670;6.750;2023-07-13T06:05:26;16.30;99.90
60293;DHT22;52402;52.670;6.750;2023-07-13T06:07:54;16.30;99.90
60293;DHT22;52402;52.670;6.750;2023-07-13T06:10:20;16.40;99.90
60293;DHT22;52402;52.670;6.750;2023-07-13T06:12:46;16.50;99.90
60293;DHT22;52402;52.670;6.750;2023-07-13T06:15:12;16.50;99.90
60293;DHT22;52402;52.670;6.750;2023-07-13T06:17:37;16.60;99.90
60293;DHT22;52402;52.670;6.750;2023-07-13T06:20:03;16.70;99.90
60293;DHT22;52402;52.670;6.750;2023-07-13T06:22:29;16.70;99.90
60293;DHT22;52402;52.670;6.750;2023-07-13T06:24:55;16.80;99.90
60293;DHT22;52402;52.670;6.750;2023-07-13T06:27:20;16.80;99.90
60293;DHT22;52402;52.670;6.750;2023-07-13T06:29:46;16.90;99.90
60293;DHT22;52402;52.670;6.750;2023-07-13T06:32:12;17.00;99.90
60293;DHT22;52402;52.670;6.750;2023-07-13T06:34:38;17.10;99.90
60293;DHT22;52402;52.670;6.750;2023-07-13T06:37:03;17.10;99.90
60293;DHT22;52402;52.670;6.750;2023-07-13T06:39:29;17.20;99.90
60293;DHT22;52402;52.670;6.750;2023-07-13T06:41:55;17.30;99.90
60293;DHT22;52402;52.670;6.750;2023-07-13T06:44:20;17.40;99.90
60293;DHT22;52402;52.670;6.750;2023-07-13T06:46:46;17.50;99.90
60293;DHT22;52402;52.670;6.750;2023-07-13T06:49:11;17.60;99.90
60293;DHT22;52402;52.670;6.750;2023-07-13T06:51:37;17.80;99.90
60293;DHT22;52402;52.670;6.750;2023-07-13T06:54:03;18.00;99.90
60293;DHT22;52402;52.670;6.750;2023-07-13T06:56:29;18.10;99.90
60293;DHT22;52402;52.670;6.750;2023-07-13T06:58:55;18.30;99.90
60293;DHT22;52402;52.670;6.750;2023-07-13T07:01:20;18.50;99.90
60293;DHT22;52402;52.670;6.750;2023-07-13T07:03:46;18.70;99.90
60293;DHT22;52402;52.670;6.750;2023-07-13T07:06:20;18.90;99.90
60293;DHT22;52402;52.670;6.750;2023-07-13T07:08:49;19.00;99.90
60293;DHT22;52402;52.670;6.750;2023-07-13T07:11:22;19.20;99.90
60293;DHT22;52402;52.670;6.750;2023-07-13T07:13:49;19.40;99.90
60293;DHT22;52402;52.670;6.750;2023-07-13T07:16:16;19.50;99.90
60293;DHT22;52402;52.670;6.750;2023-07-13T07:18:41;19.70;99.90
60293;DHT22;52402;52.670;6.750;2023-07-13T07:21:07;19.60;99.90
60293;DHT22;52402;52.670;6.750;2023-07-13T07:23:33;19.60;99.90
60293;DHT22;52402;52.670;6.750;2023-07-13T07:25:59;19.50;99.90
60293;DHT22;52402;52.670;6.750;2023-07-13T07:28:25;19.30;99.90
60293;DHT22;52402;52.670;6.750;2023-07-13T07:30:54;19.30;99.90
60293;DHT22;52402;52.670;6.750;2023-07-13T07:33:20;19.20;99.90
60293;DHT22;52402;52.670;6.750;2023-07-13T07:35:46;19.20;99.90
60293;DHT22;52402;52.670;6.750;2023-07-13T07:38:11;19.10;99.90
60293;DHT22;52402;52.670;6.750;2023-07-13T07:40:41;19.00;99.90
60293;DHT22;52402;52.670;6.750;2023-07-13T07:43:08;19.00;99.90
60293;DHT22;52402;52.670;6.750;2023-07-13T07:45:37;19.00;99.90
60293;DHT22;52402;52.670;6.750;2023-07-13T07:48:07;19.10;99.90
60293;DHT22;52402;52.670;6.750;2023-07-13T07:50:40;19.10;99.90
60293;DHT22;52402;52.670;6.750;2023-07-13T07:53:40;19.20;99.90
60293;DHT22;52402;52.670;6.750;2023-07-13T07:56:25;19.30;99.90
60293;DHT22;52402;52.670;6.750;2023-07-13T07:59:12;19.40;99.90
60293;DHT22;52402;52.670;6.750;2023-07-13T08:02:09;19.50;99.90
60293;DHT22;52402;52.670;6.750;2023-07-13T08:04:45;19.50;99.90
60293;DHT22;52402;52.670;6.750;2023-07-13T08:07:11;19.60;99.90
60293;DHT22;52402;52.670;6.750;2023-07-13T08:09:43;19.70;99.90
60293;DHT22;52402;52.670;6.750;2023-07-13T08:12:09;19.80;99.90
60293;DHT22;52402;52.670;6.750;2023-07-13T08:14:35;19.80;99.90
60293;DHT22;52402;52.670;6.750;2023-07-13T08:17:01;19.80;99.90
60293;DHT22;52402;52.670;6.750;2023-07-13T08:23:12;19.90;99.90
60293;DHT22;52402;52.670;6.750;2023-07-13T08:25:38;20.00;99.90
60293;DHT22;52402;52.670;6.750;2023-07-13T08:28:06;20.00;99.90
60293;DHT22;52402;52.670;6.750;2023-07-13T08:30:32;20.10;99.90
60293;DHT22;52402;52.670;6.750;2023-07-13T08:32:58;20.20;99.90
60293;DHT22;52402;52.670;6.750;2023-07-13T08:35:39;20.40;99.90
60293;DHT22;52402;52.670;6.750;2023-07-13T08:38:11;20.50;99.90
60293;DHT22;52402;52.670;6.750;2023-07-13T08:40:36;20.50;99.90
60293;DHT22;52402;52.670;6.750;2023-07-13T08:43:26;20.50;99.90
60293;DHT22;52402;52.670;6.750;2023-07-13T08:46:40;20.50;99.90
60293;DHT22;52402;52.670;6.750;2023-07-13T08:49:16;20.70;99.90
60293;DHT22;52402;52.670;6.750;2023-07-13T08:51:48;20.90;99.90
60293;DHT22;52402;52.670;6.750;2023-07-13T08:54:41;21.40;99.90
60293;DHT22;52402;52.670;6.750;2023-07-13T08:57:18;21.50;99.90
60293;DHT22;52402;52.670;6.750;2023-07-13T08:59:44;21.30;99.90
60293;DHT22;52402;52.670;6.750;2023-07-13T09:05:22;21.30;99.90
60293;DHT22;52402;52.670;6.750;2023-07-13T09:13:47;21.40;99.90
60293;DHT22;52402;52.670;6.750;2023-07-13T09:16:16;21.40;99.90
60293;DHT22;52402;52.670;6.750;2023-07-13T09:18:45;21.30;99.90
60293;DHT22;52402;52.670;6.750;2023-07-13T09:23:43;20.80;99.90
60293;DHT22;52402;52.670;6.750;2023-07-13T09:28:43;20.40;99.90
60293;DHT22;52402;52.670;6.750;2023-07-13T09:31:24;19.60;99.90
60293;DHT22;52402;52.670;6.750;2023-07-13T09:33:51;18.50;99.90
60293;DHT22;52402;52.670;6.750;2023-07-13T09:36:26;17.70;99.90
60293;DHT22;52402;52.670;6.750;2023-07-13T09:39:10;17.00;99.90
60293;DHT22;52402;52.670;6.750;2023-07-13T09:44:17;16.30;99.90
60293;DHT22;52402;52.670;6.750;2023-07-13T09:46:54;16.10;99.90
60293;DHT22;52402;52.670;6.750;2023-07-13T09:49:27;16.00;99.90
60293;DHT22;52402;52.670;6.750;2023-07-13T09:52:03;15.80;99.90
60293;DHT22;52402;52.670;6.750;2023-07-13T09:54:33;15.90;99.90
60293;DHT22;52402;52.670;6.750;2023-07-13T09:57:01;16.00;99.90
60293;DHT22;52402;52.670;6.750;2023-07-13T09:59:33;16.20;99.90
60293;DHT22;52402;52.670;6.750;2023-07-13T10:02:00;16.40;99.90
60293;DHT22;52402;52.670;6.750;2023-07-13T10:04:32;16.80;99.90
60293;DHT22;52402;52.670;6.750;2023-07-13T10:07:11;17.00;99.90
60293;DHT22;52402;52.670;6.750;2023-07-13T10:09:38;17.30;99.90
60293;DHT22;52402;52.670;6.750;2023-07-13T10:12:13;17.40;99.90
60293;DHT22;52402;52.670;6.750;2023-07-13T10:14:41;17.40;99.90
60293;DHT22;52402;52.670;6.750;2023-07-13T10:17:12;17.40;99.90
60293;DHT22;52402;52.670;6.750;2023-07-13T10:19:41;17.40;99.90
60293;DHT22;52402;52.670;6.750;2023-07-13T10:22:19;17.50;99.90
60293;DHT22;52402;52.670;6.750;2023-07-13T10:24:47;17.70;99.90
60293;DHT22;52402;52.670;6.750;2023-07-13T10:27:19;18.00;99.90
60293;DHT22;52402;52.670;6.750;2023-07-13T10:29:49;18.20;99.90
60293;DHT22;52402;52.670;6.750;2023-07-13T10:32:19;18.60;99.90
60293;DHT22;52402;52.670;6.750;2023-07-13T10:34:47;19.00;99.90
60293;DHT22;52402;52.670;6.750;2023-07-13T10:37:28;19.40;99.90
60293;DHT22;52402;52.670;6.750;2023-07-13T10:39:56;19.50;99.90
60293;DHT22;52402;52.670;6.750;2023-07-13T10:42:40;19.50;99.90
60293;DHT22;52402;52.670;6.750;2023-07-13T10:45:21;19.40;99.90
60293;DHT22;52402;52.670;6.750;2023-07-13T10:47:47;19.40;99.90
60293;DHT22;52402;52.670;6.750;2023-07-13T10:50:21;19.30;99.90
60293;DHT22;52402;52.670;6.750;2023-07-13T10:52:49;19.30;99.90
60293;DHT22;52402;52.670;6.750;2023-07-13T10:55:35;19.30;99.90
60293;DHT22;52402;52.670;6.750;2023-07-13T10:58:22;19.30;99.90
60293;DHT22;52402;52.670;6.750;2023-07-13T11:03:34;19.20;99.90
60293;DHT22;52402;52.670;6.750;2023-07-13T11:08:53;19.20;99.90
60293;DHT22;52402;52.670;6.750;2023-07-13T11:21:25;17.90;99.90
60293;DHT22;52402;52.670;6.750;2023-07-13T11:23:54;17.50;99.90
60293;DHT22;52402;52.670;6.750;2023-07-13T11:26:46;17.30;99.90
60293;DHT22;52402;52.670;6.750;2023-07-13T11:31:51;17.20;99.90
60293;DHT22;52402;52.670;6.750;2023-07-13T11:34:24;17.30;99.90
60293;DHT22;52402;52.670;6.750;2023-07-13T11:36:53;17.40;99.90
60293;DHT22;52402;52.670;6.750;2023-07-13T11:39:37;17.70;99.90
60293;DHT22;52402;52.670;6.750;2023-07-13T11:42:07;17.90;99.90
60293;DHT22;52402;52.670;6.750;2023-07-13T11:44:34;18.30;99.90
60293;DHT22;52402;52.670;6.750;2023-07-13T11:47:08;18.60;99.90
60293;DHT22;52402;52.670;6.750;2023-07-13T11:49:47;18.80;99.90
60293;DHT22;52402;52.670;6.750;2023-07-13T11:52:17;18.80;99.90
60293;DHT22;52402;52.670;6.750;2023-07-13T11:54:50;18.90;99.90
60293;DHT22;52402;52.670;6.750;2023-07-13T11:57:33;19.00;99.90
60293;DHT22;52402;52.670;6.750;2023-07-13T12:00:09;19.00;99.90
60293;DHT22;52402;52.670;6.750;2023-07-13T12:02:39;19.30;99.90
60293;DHT22;52402;52.670;6.750;2023-07-13T12:05:08;19.60;99.90
60293;DHT22;52402;52.670;6.750;2023-07-13T12:07:35;19.80;99.90
60293;DHT22;52402;52.670;6.750;2023-07-13T12:10:24;20.20;99.90
60293;DHT22;52402;52.670;6.750;2023-07-13T12:12:58;20.70;99.90
60293;DHT22;52402;52.670;6.750;2023-07-13T12:15:32;21.00;99.90
60293;DHT22;52402;52.670;6.750;2023-07-13T12:18:01;20.80;99.90
60293;DHT22;52402;52.670;6.750;2023-07-13T12:20:33;20.90;99.90
60293;DHT22;52402;52.670;6.750;2023-07-13T12:23:00;20.90;99.90
60293;DHT22;52402;52.670;6.750;2023-07-13T12:25:28;21.20;99.90
60293;DHT22;52402;52.670;6.750;2023-07-13T12:27:55;20.90;99.90
60293;DHT22;52402;52.670;6.750;2023-07-13T12:30:30;21.00;99.90
60293;DHT22;52402;52.670;6.750;2023-07-13T12:33:01;21.20;99.90
60293;DHT22;52402;52.670;6.750;2023-07-13T12:35:30;21.10;99.90
60293;DHT22;52402;52.670;6.750;2023-07-13T12:37:59;20.90;99.90
60293;DHT22;52402;52.670;6.750;2023-07-13T12:40:32;21.00;99.90
60293;DHT22;52402;52.670;6.750;2023-07-13T12:42:59;21.20;99.90
60293;DHT22;52402;52.670;6.750;2023-07-13T12:45:27;21.70;99.90
60293;DHT22;52402;52.670;6.750;2023-07-13T12:47:56;22.00;99.90
60293;DHT22;52402;52.670;6.750;2023-07-13T12:50:42;22.10;99.90
60293;DHT22;52402;52.670;6.750;2023-07-13T12:53:20;22.50;99.90
60293;DHT22;52402;52.670;6.750;2023-07-13T12:55:50;22.80;99.90
60293;DHT22;52402;52.670;6.750;2023-07-13T12:58:24;23.20;99.90
60293;DHT22;52402;52.670;6.750;2023-07-13T13:00:51;23.20;99.90
60293;DHT22;52402;52.670;6.750;2023-07-13T13:03:37;23.10;99.90
60293;DHT22;52402;52.670;6.750;2023-07-13T13:06:22;23.30;99.90
60293;DHT22;52402;52.670;6.750;2023-07-13T13:08:51;23.20;99.90
60293;DHT22;52402;52.670;6.750;2023-07-13T13:11:18;23.00;99.90
60293;DHT22;52402;52.670;6.750;2023-07-13T13:13:45;22.70;99.90
60293;DHT22;52402;52.670;6.750;2023-07-13T13:16:31;22.80;99.90
60293;DHT22;52402;52.670;6.750;2023-07-13T13:19:01;23.20;99.90
60293;DHT22;52402;52.670;6.750;2023-07-13T13:21:28;23.70;99.90
60293;DHT22;52402;52.670;6.750;2023-07-13T13:23:54;23.60;99.90
60293;DHT22;52402;52.670;6.750;2023-07-13T13:26:22;24.00;99.90
60293;DHT22;52402;52.670;6.750;2023-07-13T13:28:48;24.10;99.90
60293;DHT22;52402;52.670;6.750;2023-07-13T13:31:14;24.10;99.40
60293;DHT22;52402;52.670;6.750;2023-07-13T13:33:42;24.10;97.30
60293;DHT22;52402;52.670;6.750;2023-07-13T13:36:17;24.50;99.10
60293;DHT22;52402;52.670;6.750;2023-07-13T13:38:44;24.80;99.90
60293;DHT22;52402;52.670;6.750;2023-07-13T13:41:12;25.10;98.80
60293;DHT22;52402;52.670;6.750;2023-07-13T13:43:39;25.10;96.60
60293;DHT22;52402;52.670;6.750;2023-07-13T13:46:20;25.30;96.80
60293;DHT22;52402;52.670;6.750;2023-07-13T13:48:48;25.30;98.40
60293;DHT22;52402;52.670;6.750;2023-07-13T13:51:15;25.50;95.90
60293;DHT22;52402;52.670;6.750;2023-07-13T13:53:41;25.20;94.10
60293;DHT22;52402;52.670;6.750;2023-07-13T13:56:08;24.90;95.80
60293;DHT22;52402;52.670;6.750;2023-07-13T13:58:34;24.50;95.40
60293;DHT22;52402;52.670;6.750;2023-07-13T14:01:00;24.50;94.90
60293;DHT22;52402;52.670;6.750;2023-07-13T14:03:26;24.40;94.30
60293;DHT22;52402;52.670;6.750;2023-07-13T14:05:54;24.20;96.40
60293;DHT22;52402;52.670;6.750;2023-07-13T14:08:21;24.30;97.10
60293;DHT22;52402;52.670;6.750;2023-07-13T14:10:50;23.80;96.30
60293;DHT22;52402;52.670;6.750;2023-07-13T14:13:21;23.90;96.00
60293;DHT22;52402;52.670;6.750;2023-07-13T14:15:51;23.90;97.50
60293;DHT22;52402;52.670;6.750;2023-07-13T14:18:16;23.80;96.20
60293;DHT22;52402;52.670;6.750;2023-07-13T14:20:44;23.80;95.50
60293;DHT22;52402;52.670;6.750;2023-07-13T14:23:13;23.40;96.60
60293;DHT22;52402;52.670;6.750;2023-07-13T14:25:38;23.10;96.50
60293;DHT22;52402;52.670;6.750;2023-07-13T14:28:24;22.90;94.80
60293;DHT22;52402;52.670;6.750;2023-07-13T14:30:51;23.40;97.10
60293;DHT22;52402;52.670;6.750;2023-07-13T14:33:17;23.80;96.40
60293;DHT22;52402;52.670;6.750;2023-07-13T14:35:43;24.30;95.90
60293;DHT22;52402;52.670;6.750;2023-07-13T14:38:18;24.40;95.10
60293;DHT22;52402;52.670;6.750;2023-07-13T14:40:45;24.80;95.10
60293;DHT22;52402;52.670;6.750;2023-07-13T14:43:16;25.00;94.10
60293;DHT22;52402;52.670;6.750;2023-07-13T14:45:48;25.20;93.70
60293;DHT22;52402;52.670;6.750;2023-07-13T14:48:33;25.20;93.20
60293;DHT22;52402;52.670;6.750;2023-07-13T14:51:09;25.30;93.00
60293;DHT22;52402;52.670;6.750;2023-07-13T14:53:35;25.10;92.30
60293;DHT22;52402;52.670;6.750;2023-07-13T14:56:11;25.40;94.20
60293;DHT22;52402;52.670;6.750;2023-07-13T14:58:37;25.60;93.50
60293;DHT22;52402;52.670;6.750;2023-07-13T15:01:13;25.90;92.50
60293;DHT22;52402;52.670;6.750;2023-07-13T15:03:44;26.10;93.20
60293;DHT22;52402;52.670;6.750;2023-07-13T15:06:12;26.20;92.30
60293;DHT22;52402;52.670;6.750;2023-07-13T15:08:38;26.50;91.20
60293;DHT22;52402;52.670;6.750;2023-07-13T15:11:06;26.20;92.00
60293;DHT22;52402;52.670;6.750;2023-07-13T15:13:34;25.50;92.00
60293;DHT22;52402;52.670;6.750;2023-07-13T15:16:01;25.00;92.30
60293;DHT22;52402;52.670;6.750;2023-07-13T15:18:27;25.00;92.00
60293;DHT22;52402;52.670;6.750;2023-07-13T15:20:54;25.00;91.90
60293;DHT22;52402;52.670;6.750;2023-07-13T15:23:21;25.00;92.40
60293;DHT22;52402;52.670;6.750;2023-07-13T15:25:48;24.90;91.70
60293;DHT22;52402;52.670;6.750;2023-07-13T15:28:14;24.70;92.40
60293;DHT22;52402;52.670;6.750;2023-07-13T15:30:46;24.80;92.10
60293;DHT22;52402;52.670;6.750;2023-07-13T15:33:26;24.60;92.90
60293;DHT22;52402;52.670;6.750;2023-07-13T15:35:52;24.60;94.50
60293;DHT22;52402;52.670;6.750;2023-07-13T15:38:26;24.60;93.10
60293;DHT22;52402;52.670;6.750;2023-07-13T15:40:53;24.70;91.70
60293;DHT22;52402;52.670;6.750;2023-07-13T15:43:19;24.90;94.30
60293;DHT22;52402;52.670;6.750;2023-07-13T15:45:46;25.00;92.80
60293;DHT22;52402;52.670;6.750;2023-07-13T15:48:22;25.20;92.30
60293;DHT22;52402;52.670;6.750;2023-07-13T15:50:53;25.20;93.10
60293;DHT22;52402;52.670;6.750;2023-07-13T15:53:25;25.50;92.30
60293;DHT22;52402;52.670;6.750;2023-07-13T15:55:55;25.20;91.80
60293;DHT22;52402;52.670;6.750;2023-07-13T15:58:22;25.50;92.00
60293;DHT22;52402;52.670;6.750;2023-07-13T16:01:03;25.20;92.00
60293;DHT22;52402;52.670;6.750;2023-07-13T16:03:29;24.60;92.30
60293;DHT22;52402;52.670;6.750;2023-07-13T16:05:55;24.20;92.40
60293;DHT22;52402;52.670;6.750;2023-07-13T16:08:25;24.10;95.20
60293;DHT22;52402;52.670;6.750;2023-07-13T16:10:51;23.60;94.30
60293;DHT22;52402;52.670;6.750;2023-07-13T16:13:19;23.40;93.80
60293;DHT22;52402;52.670;6.750;2023-07-13T16:15:46;23.50;94.80
60293;DHT22;52402;52.670;6.750;2023-07-13T16:18:13;23.70;94.40
60293;DHT22;52402;52.670;6.750;2023-07-13T16:20:43;23.90;95.10
60293;DHT22;52402;52.670;6.750;2023-07-13T16:23:12;23.40;93.10